sensor_id;sensor_type;location;lat;lon;timestamp;P1;durP1;ratioP1;P2;durP2;ratioP2
68319;SDS011;55168;51.120;17.024;2024-03-17T00:00:00;8.4;;;5.2;;
68319;SDS011;55168;51.120;17.024;2024-03-17T00:01:00;8.4;;;5.2;;
68319;SDS011;55168;51.120;17.024;2024-03-17T00:02:00;8.4;;;5.2;;
68319;SDS011;55168;51.120;17.024;2024-03-17T00:03:00;8.4;;;5.2;;
68319;SDS011;55168;51.120;17.024;2024-03-17T00:04:00;8.4;;;5.2;;
68319;SDS011;55168;51.120;17.024;2024-03-17T00:05:00;6.8;;;5.2;;
68319;SDS011;55168;51.120;17.024;2024-03-17T00:06:01;6.8;;;5.2;;
68319;SDS011;55168;51.120;17.024;2024-03-17T00:07:00;6.8;;;5.2;;
68319;SDS011;55168;51.120;17.024;2024-03-17T00:08:00;6.8;;;5.2;;
68319;SDS011;55168;51.120;17.024;2024-03-17T00:09:00;6.8;;;5.2;;
68319;SDS011;55168;51.120;17.024;2024-03-17T00:10:00;7.4;;;5.0;;
68319;SDS011;55168;51.120;17.024;2024-03-17T00:11:00;7.4;;;5.0;;
68319;SDS011;55168;51.120;17.024;2024-03-17T00:12:00;7.4;;;5.0;;
68319;SDS011;55168;51.120;17.024;2024-03-17T00:13:00;7.4;;;5.0;;
68319;SDS011;55168;51.120;17.024;2024-03-17T00:14:00;7.4;;;5.0;;
68319;SDS011;55168;51.120;17.024;2024-03-17T00:15:00;8.1;;;5.4;;
68319;SDS011;55168;51.120;17.024;2024-03-17T00:16:00;8.1;;;5.4;;
68319;SDS011;55168;51.120;17.024;2024-03-17T00:17:01;8.1;;;5.4;;
68319;SDS011;55168;51.120;17.024;2024-03-17T00:18:00;8.1;;;5.4;;
68319;SDS011;55168;51.120;17.024;2024-03-17T00:19:00;8.1;;;5.4;;
68319;SDS011;55168;51.120;17.024;2024-03-17T00:20:00;7.9;;;5.6;;
68319;SDS011;55168;51.120;17.024;2024-03-17T00:21:02;7.9;;;5.6;;
68319;SDS011;55168;51.120;17.024;2024-03-17T00:22:00;7.9;;;5.6;;
68319;SDS011;55168;51.120;17.024;2024-03-17T00:23:00;7.9;;;5.6;;
68319;SDS011;55168;51.120;17.024;2024-03-17T00:24:00;7.9;;;5.6;;
68319;SDS011;55168;51.120;17.024;2024-03-17T00:25:00;11.3;;;5.6;;
68319;SDS011;55168;51.120;17.024;2024-03-17T00:26:00;11.3;;;5.6;;
68319;SDS011;55168;51.120;17.024;2024-03-17T00:27:01;11.3;;;5.6;;
68319;SDS011;55168;51.120;17.024;2024-03-17T00:28:01;11.3;;;5.6;;
68319;SDS011;55168;51.120;17.024;2024-03-17T00:29:00;11.3;;;5.6;;
68319;SDS011;55168;51.120;17.024;2024-03-17T00:30:00;7.1;;;5.4;;
68319;SDS011;55168;51.120;17.024;2024-03-17T00:31:03;7.1;;;5.4;;
68319;SDS011;55168;51.120;17.024;2024-03-17T00:32:00;7.1;;;5.4;;
68319;SDS011;55168;51.120;17.024;2024-03-17T00:33:00;7.1;;;5.4;;
68319;SDS011;55168;51.120;17.024;2024-03-17T00:34:00;7.1;;;5.4;;
68319;SDS011;55168;51.120;17.024;2024-03-17T00:35:00;7.8;;;5.1;;
68319;SDS011;55168;51.120;17.024;2024-03-17T00:36:00;7.8;;;5.1;;
68319;SDS011;55168;51.120;17.024;2024-03-17T00:37:00;7.8;;;5.1;;
68319;SDS011;55168;51.120;17.024;2024-03-17T00:38:00;7.8;;;5.1;;
68319;SDS011;55168;51.120;17.024;2024-03-17T00:39:00;7.8;;;5.1;;
68319;SDS011;55168;51.120;17.024;2024-03-17T00:40:01;7.4;;;5.0;;
68319;SDS011;55168;51.120;17.024;2024-03-17T00:41:02;7.4;;;5.0;;
68319;SDS011;55168;51.120;17.024;2024-03-17T00:42:00;7.4;;;5.0;;
68319;SDS011;55168;51.120;17.024;2024-03-17T00:43:00;7.4;;;5.0;;
68319;SDS011;55168;51.120;17.024;2024-03-17T00:44:00;7.4;;;5.0;;
68319;SDS011;55168;51.120;17.024;2024-03-17T00:45:00;9.3;;;5.3;;
68319;SDS011;55168;51.120;17.024;2024-03-17T00:46:00;9.3;;;5.3;;
68319;SDS011;55168;51.120;17.024;2024-03-17T00:47:00;9.3;;;5.3;;
68319;SDS011;55168;51.120;17.024;2024-03-17T00:48:00;9.3;;;5.3;;
68319;SDS011;55168;51.120;17.024;2024-03-17T00:49:00;9.3;;;5.3;;
68319;SDS011;55168;51.120;17.024;2024-03-17T00:50:00;9.0;;;5.4;;
68319;SDS011;55168;51.120;17.024;2024-03-17T00:51:00;9.0;;;5.4;;
68319;SDS011;55168;51.120;17.024;2024-03-17T00:52:00;9.0;;;5.4;;
68319;SDS011;55168;51.120;17.024;2024-03-17T00:53:00;9.0;;;5.4;;
68319;SDS011;55168;51.120;17.024;2024-03-17T00:54:00;9.0;;;5.4;;
68319;SDS011;55168;51.120;17.024;2024-03-17T00:55:01;8.3;;;5.3;;
68319;SDS011;55168;51.120;17.024;2024-03-17T00:56:00;8.3;;;5.3;;
68319;SDS011;55168;51.120;17.024;2024-03-17T00:57:00;8.3;;;5.3;;
68319;SDS011;55168;51.120;17.024;2024-03-17T00:58:00;8.3;;;5.3;;
68319;SDS011;55168;51.120;17.024;2024-03-17T00:59:00;8.3;;;5.3;;
68319;SDS011;55168;51.120;17.024;2024-03-17T01:00:00;7.5;;;5.5;;
68319;SDS011;55168;51.120;17.024;2024-03-17T01:01:00;7.5;;;5.5;;
68319;SDS011;55168;51.120;17.024;2024-03-17T01:02:00;7.5;;;5.5;;
68319;SDS011;55168;51.120;17.024;2024-03-17T01:03:00;7.5;;;5.5;;
68319;SDS011;55168;51.120;17.024;2024-03-17T01:04:00;7.5;;;5.5;;
68319;SDS011;55168;51.120;17.024;2024-03-17T01:05:00;7.2;;;5.2;;
68319;SDS011;55168;51.120;17.024;2024-03-17T01:06:02;7.2;;;5.2;;
68319;SDS011;55168;51.120;17.024;2024-03-17T01:07:00;7.2;;;5.2;;
68319;SDS011;55168;51.120;17.024;2024-03-17T01:08:00;7.2;;;5.2;;
68319;SDS011;55168;51.120;17.024;2024-03-17T01:09:00;7.2;;;5.2;;
68319;SDS011;55168;51.120;17.024;2024-03-17T01:10:00;8.4;;;5.5;;
68319;SDS011;55168;51.120;17.024;2024-03-17T01:11:00;8.4;;;5.5;;
68319;SDS011;55168;51.120;17.024;2024-03-17T01:12:00;8.4;;;5.5;;
68319;SDS011;55168;51.120;17.024;2024-03-17T01:13:00;8.4;;;5.5;;
68319;SDS011;55168;51.120;17.024;2024-03-17T01:14:00;8.4;;;5.5;;
68319;SDS011;55168;51.120;17.024;2024-03-17T01:15:03;8.7;;;5.4;;
68319;SDS011;55168;51.120;17.024;2024-03-17T01:16:00;8.7;;;5.4;;
68319;SDS011;55168;51.120;17.024;2024-03-17T01:17:00;8.7;;;5.4;;
68319;SDS011;55168;51.120;17.024;2024-03-17T01:18:00;8.7;;;5.4;;
68319;SDS011;55168;51.120;17.024;2024-03-17T01:19:00;8.7;;;5.4;;
68319;SDS011;55168;51.120;17.024;2024-03-17T01:20:00;8.3;;;5.1;;
68319;SDS011;55168;51.120;17.024;2024-03-17T01:21:00;8.3;;;5.1;;
68319;SDS011;55168;51.120;17.024;2024-03-17T01:22:01;8.3;;;5.1;;
68319;SDS011;55168;51.120;17.024;2024-03-17T01:23:00;8.3;;;5.1;;
68319;SDS011;55168;51.120;17.024;2024-03-17T01:24:00;8.3;;;5.1;;
68319;SDS011;55168;51.120;17.024;2024-03-17T01:25:00;8.0;;;5.0;;
68319;SDS011;55168;51.120;17.024;2024-03-17T01:26:00;8.0;;;5.0;;
68319;SDS011;55168;51.120;17.024;2024-03-17T01:27:00;8.0;;;5.0;;
68319;SDS011;55168;51.120;17.024;2024-03-17T01:28:00;8.0;;;5.0;;
68319;SDS011;55168;51.120;17.024;2024-03-17T01:29:00;8.0;;;5.0;;
68319;SDS011;55168;51.120;17.024;2024-03-17T01:30:00;9.0;;;5.8;;
68319;SDS011;55168;51.120;17.024;2024-03-17T01:31:00;9.0;;;5.8;;
68319;SDS011;55168;51.120;17.024;2024-03-17T01:32:00;9.0;;;5.8;;
68319;SDS011;55168;51.120;17.024;2024-03-17T01:33:01;9.0;;;5.8;;
68319;SDS011;55168;51.120;17.024;2024-03-17T01:34:00;9.0;;;5.8;;
68319;SDS011;55168;51.120;17.024;2024-03-17T01:35:00;7.3;;;5.1;;
68319;SDS011;55168;51.120;17.024;2024-03-17T01:36:00;7.3;;;5.1;;
68319;SDS011;55168;51.120;17.024;2024-03-17T01:37:00;7.3;;;5.1;;
68319;SDS011;55168;51.120;17.024;2024-03-17T01:38:00;7.3;;;5.1;;
68319;SDS011;55168;51.120;17.024;2024-03-17T01:39:00;7.3;;;5.1;;
68319;SDS011;55168;51.120;17.024;2024-03-17T01:40:00;8.8;;;5.7;;
68319;SDS011;55168;51.120;17.024;2024-03-17T01:41:00;8.8;;;5.7;;
68319;SDS011;55168;51.120;17.024;2024-03-17T01:42:00;8.8;;;5.7;;
68319;SDS011;55168;51.120;17.024;2024-03-17T01:43:00;8.8;;;5.7;;
68319;SDS011;55168;51.120;17.024;2024-03-17T01:44:00;8.8;;;5.7;;
68319;SDS011;55168;51.120;17.024;2024-03-17T01:45:00;8.6;;;5.4;;
68319;SDS011;55168;51.120;17.024;2024-03-17T01:46:00;8.6;;;5.4;;
68319;SDS011;55168;51.120;17.024;2024-03-17T01:47:00;8.6;;;5.4;;
68319;SDS011;55168;51.120;17.024;2024-03-17T01:48:01;8.6;;;5.4;;
68319;SDS011;55168;51.120;17.024;2024-03-17T01:49:00;8.6;;;5.4;;
68319;SDS011;55168;51.120;17.024;2024-03-17T01:50:00;8.6;;;5.8;;
68319;SDS011;55168;51.120;17.024;2024-03-17T01:51:01;8.6;;;5.8;;
68319;SDS011;55168;51.120;17.024;2024-03-17T01:52:00;8.6;;;5.8;;
68319;SDS011;55168;51.120;17.024;2024-03-17T01:53:02;8.6;;;5.8;;
68319;SDS011;55168;51.120;17.024;2024-03-17T01:54:00;8.6;;;5.8;;
68319;SDS011;55168;51.120;17.024;2024-03-17T01:55:02;10.3;;;6.2;;
68319;SDS011;55168;51.120;17.024;2024-03-17T01:56:00;10.3;;;6.2;;
68319;SDS011;55168;51.120;17.024;2024-03-17T01:57:00;10.3;;;6.2;;
68319;SDS011;55168;51.120;17.024;2024-03-17T01:58:00;10.3;;;6.2;;
68319;SDS011;55168;51.120;17.024;2024-03-17T01:59:01;10.3;;;6.2;;
68319;SDS011;55168;51.120;17.024;2024-03-17T02:00:00;8.6;;;5.8;;
68319;SDS011;55168;51.120;17.024;2024-03-17T02:01:00;8.6;;;5.8;;
68319;SDS011;55168;51.120;17.024;2024-03-17T02:02:00;8.6;;;5.8;;
68319;SDS011;55168;51.120;17.024;2024-03-17T02:03:00;8.6;;;5.8;;
68319;SDS011;55168;51.120;17.024;2024-03-17T02:04:00;8.6;;;5.8;;
68319;SDS011;55168;51.120;17.024;2024-03-17T02:05:00;9.0;;;5.8;;
68319;SDS011;55168;51.120;17.024;2024-03-17T02:06:00;9.0;;;5.8;;
68319;SDS011;55168;51.120;17.024;2024-03-17T02:07:00;9.0;;;5.8;;
68319;SDS011;55168;51.120;17.024;2024-03-17T02:08:00;9.0;;;5.8;;
68319;SDS011;55168;51.120;17.024;2024-03-17T02:09:00;9.0;;;5.8;;
68319;SDS011;55168;51.120;17.024;2024-03-17T02:10:00;8.4;;;5.2;;
68319;SDS011;55168;51.120;17.024;2024-03-17T02:11:00;8.4;;;5.2;;
68319;SDS011;55168;51.120;17.024;2024-03-17T02:12:00;8.4;;;5.2;;
68319;SDS011;55168;51.120;17.024;2024-03-17T02:13:01;8.4;;;5.2;;
68319;SDS011;55168;51.120;17.024;2024-03-17T02:14:00;8.4;;;5.2;;
68319;SDS011;55168;51.120;17.024;2024-03-17T02:15:00;8.7;;;5.5;;
68319;SDS011;55168;51.120;17.024;2024-03-17T02:16:00;8.7;;;5.5;;
68319;SDS011;55168;51.120;17.024;2024-03-17T02:17:00;8.7;;;5.5;;
68319;SDS011;55168;51.120;17.024;2024-03-17T02:18:00;8.7;;;5.5;;
68319;SDS011;55168;51.120;17.024;2024-03-17T02:19:00;8.7;;;5.5;;
68319;SDS011;55168;51.120;17.024;2024-03-17T02:20:00;10.5;;;5.3;;
68319;SDS011;55168;51.120;17.024;2024-03-17T02:21:00;10.5;;;5.3;;
68319;SDS011;55168;51.120;17.024;2024-03-17T02:22:00;10.5;;;5.3;;
68319;SDS011;55168;51.120;17.024;2024-03-17T02:23:00;10.5;;;5.3;;
68319;SDS011;55168;51.120;17.024;2024-03-17T02:24:00;10.5;;;5.3;;
68319;SDS011;55168;51.120;17.024;2024-03-17T02:25:00;6.7;;;4.9;;
68319;SDS011;55168;51.120;17.024;2024-03-17T02:26:00;6.7;;;4.9;;
68319;SDS011;55168;51.120;17.024;2024-03-17T02:27:00;6.7;;;4.9;;
68319;SDS011;55168;51.120;17.024;2024-03-17T02:28:00;6.7;;;4.9;;
68319;SDS011;55168;51.120;17.024;2024-03-17T02:29:00;6.7;;;4.9;;
68319;SDS011;55168;51.120;17.024;2024-03-17T02:30:00;7.0;;;5.0;;
68319;SDS011;55168;51.120;17.024;2024-03-17T02:31:00;7.0;;;5.0;;
68319;SDS011;55168;51.120;17.024;2024-03-17T02:32:00;7.0;;;5.0;;
68319;SDS011;55168;51.120;17.024;2024-03-17T02:33:00;7.0;;;5.0;;
68319;SDS011;55168;51.120;17.024;2024-03-17T02:34:00;7.0;;;5.0;;
68319;SDS011;55168;51.120;17.024;2024-03-17T02:35:00;5.8;;;4.6;;
68319;SDS011;55168;51.120;17.024;2024-03-17T02:36:00;5.8;;;4.6;;
68319;SDS011;55168;51.120;17.024;2024-03-17T02:37:01;5.8;;;4.6;;
68319;SDS011;55168;51.120;17.024;2024-03-17T02:38:00;5.8;;;4.6;;
68319;SDS011;55168;51.120;17.024;2024-03-17T02:39:00;5.8;;;4.6;;
68319;SDS011;55168;51.120;17.024;2024-03-17T02:40:00;9.4;;;4.8;;
68319;SDS011;55168;51.120;17.024;2024-03-17T02:41:00;9.4;;;4.8;;
68319;SDS011;55168;51.120;17.024;2024-03-17T02:42:04;9.4;;;4.8;;
68319;SDS011;55168;51.120;17.024;2024-03-17T02:43:00;9.4;;;4.8;;
68319;SDS011;55168;51.120;17.024;2024-03-17T02:44:00;9.4;;;4.8;;
68319;SDS011;55168;51.120;17.024;2024-03-17T02:45:00;8.8;;;4.8;;
68319;SDS011;55168;51.120;17.024;2024-03-17T02:46:00;8.8;;;4.8;;
68319;SDS011;55168;51.120;17.024;2024-03-17T02:47:00;8.8;;;4.8;;
68319;SDS011;55168;51.120;17.024;2024-03-17T02:48:00;8.8;;;4.8;;
68319;SDS011;55168;51.120;17.024;2024-03-17T02:49:00;8.8;;;4.8;;
68319;SDS011;55168;51.120;17.024;2024-03-17T02:50:00;9.5;;;4.7;;
68319;SDS011;55168;51.120;17.024;2024-03-17T02:51:00;9.5;;;4.7;;
68319;SDS011;55168;51.120;17.024;2024-03-17T02:52:00;9.5;;;4.7;;
68319;SDS011;55168;51.120;17.024;2024-03-17T02:53:00;9.5;;;4.7;;
68319;SDS011;55168;51.120;17.024;2024-03-17T02:54:00;9.5;;;4.7;;
68319;SDS011;55168;51.120;17.024;2024-03-17T02:55:00;8.4;;;4.9;;
68319;SDS011;55168;51.120;17.024;2024-03-17T02:56:00;8.4;;;4.9;;
68319;SDS011;55168;51.120;17.024;2024-03-17T02:57:00;8.4;;;4.9;;
68319;SDS011;55168;51.120;17.024;2024-03-17T02:58:00;8.4;;;4.9;;
68319;SDS011;55168;51.120;17.024;2024-03-17T02:59:00;8.4;;;4.9;;
68319;SDS011;55168;51.120;17.024;2024-03-17T03:00:00;10.0;;;5.4;;
68319;SDS011;55168;51.120;17.024;2024-03-17T03:01:00;10.0;;;5.4;;
68319;SDS011;55168;51.120;17.024;2024-03-17T03:02:00;10.0;;;5.4;;
68319;SDS011;55168;51.120;17.024;2024-03-17T03:03:00;10.0;;;5.4;;
68319;SDS011;55168;51.120;17.024;2024-03-17T03:04:00;10.0;;;5.4;;
68319;SDS011;55168;51.120;17.024;2024-03-17T03:05:00;5.9;;;4.8;;
68319;SDS011;55168;51.120;17.024;2024-03-17T03:06:00;5.9;;;4.8;;
68319;SDS011;55168;51.120;17.024;2024-03-17T03:07:00;5.9;;;4.8;;
68319;SDS011;55168;51.120;17.024;2024-03-17T03:08:00;5.9;;;4.8;;
68319;SDS011;55168;51.120;17.024;2024-03-17T03:09:00;5.9;;;4.8;;
68319;SDS011;55168;51.120;17.024;2024-03-17T03:10:00;8.7;;;5.3;;
68319;SDS011;55168;51.120;17.024;2024-03-17T03:11:00;8.7;;;5.3;;
68319;SDS011;55168;51.120;17.024;2024-03-17T03:12:00;8.7;;;5.3;;
68319;SDS011;55168;51.120;17.024;2024-03-17T03:13:00;8.7;;;5.3;;
68319;SDS011;55168;51.120;17.024;2024-03-17T03:14:00;8.7;;;5.3;;
68319;SDS011;55168;51.120;17.024;2024-03-17T03:15:00;9.7;;;5.0;;
68319;SDS011;55168;51.120;17.024;2024-03-17T03:16:00;9.7;;;5.0;;
68319;SDS011;55168;51.120;17.024;2024-03-17T03:17:00;9.7;;;5.0;;
68319;SDS011;55168;51.120;17.024;2024-03-17T03:18:00;9.7;;;5.0;;
68319;SDS011;55168;51.120;17.024;2024-03-17T03:19:00;9.7;;;5.0;;
68319;SDS011;55168;51.120;17.024;2024-03-17T03:20:00;9.2;;;5.1;;
68319;SDS011;55168;51.120;17.024;2024-03-17T03:21:00;9.2;;;5.1;;
68319;SDS011;55168;51.120;17.024;2024-03-17T03:22:00;9.2;;;5.1;;
68319;SDS011;55168;51.120;17.024;2024-03-17T03:23:00;9.2;;;5.1;;
68319;SDS011;55168;51.120;17.024;2024-03-17T03:24:00;9.2;;;5.1;;
68319;SDS011;55168;51.120;17.024;2024-03-17T03:25:00;9.6;;;5.3;;
68319;SDS011;55168;51.120;17.024;2024-03-17T03:26:01;9.6;;;5.3;;
68319;SDS011;55168;51.120;17.024;2024-03-17T03:27:00;9.6;;;5.3;;
68319;SDS011;55168;51.120;17.024;2024-03-17T03:28:00;9.6;;;5.3;;
68319;SDS011;55168;51.120;17.024;2024-03-17T03:29:00;9.6;;;5.3;;
68319;SDS011;55168;51.120;17.024;2024-03-17T03:30:00;9.9;;;5.9;;
68319;SDS011;55168;51.120;17.024;2024-03-17T03:31:00;9.9;;;5.9;;
68319;SDS011;55168;51.120;17.024;2024-03-17T03:32:00;9.9;;;5.9;;
68319;SDS011;55168;51.120;17.024;2024-03-17T03:33:00;9.9;;;5.9;;
68319;SDS011;55168;51.120;17.024;2024-03-17T03:34:00;9.9;;;5.9;;
68319;SDS011;55168;51.120;17.024;2024-03-17T03:35:00;9.3;;;6.4;;
68319;SDS011;55168;51.120;17.024;2024-03-17T03:36:07;9.3;;;6.4;;
68319;SDS011;55168;51.120;17.024;2024-03-17T03:37:00;9.3;;;6.4;;
68319;SDS011;55168;51.120;17.024;2024-03-17T03:38:00;9.3;;;6.4;;
68319;SDS011;55168;51.120;17.024;2024-03-17T03:39:00;9.3;;;6.4;;
68319;SDS011;55168;51.120;17.024;2024-03-17T03:40:00;9.1;;;5.9;;
68319;SDS011;55168;51.120;17.024;2024-03-17T03:41:06;9.1;;;5.9;;
68319;SDS011;55168;51.120;17.024;2024-03-17T03:42:00;9.1;;;5.9;;
68319;SDS011;55168;51.120;17.024;2024-03-17T03:43:00;9.1;;;5.9;;
68319;SDS011;55168;51.120;17.024;2024-03-17T03:44:00;9.1;;;5.9;;
68319;SDS011;55168;51.120;17.024;2024-03-17T03:45:00;10.8;;;5.9;;
68319;SDS011;55168;51.120;17.024;2024-03-17T03:46:01;10.8;;;5.9;;
68319;SDS011;55168;51.120;17.024;2024-03-17T03:47:00;10.8;;;5.9;;
68319;SDS011;55168;51.120;17.024;2024-03-17T03:48:00;10.8;;;5.9;;
68319;SDS011;55168;51.120;17.024;2024-03-17T03:49:00;10.8;;;5.9;;
68319;SDS011;55168;51.120;17.024;2024-03-17T03:50:00;9.2;;;6.3;;
68319;SDS011;55168;51.120;17.024;2024-03-17T03:51:08;9.2;;;6.3;;
68319;SDS011;55168;51.120;17.024;2024-03-17T03:52:00;9.2;;;6.3;;
68319;SDS011;55168;51.120;17.024;2024-03-17T03:53:00;9.2;;;6.3;;
68319;SDS011;55168;51.120;17.024;2024-03-17T03:54:00;9.2;;;6.3;;
68319;SDS011;55168;51.120;17.024;2024-03-17T03:55:00;10.4;;;6.3;;
68319;SDS011;55168;51.120;17.024;2024-03-17T03:56:02;10.4;;;6.3;;
68319;SDS011;55168;51.120;17.024;2024-03-17T03:57:00;10.4;;;6.3;;
68319;SDS011;55168;51.120;17.024;2024-03-17T03:58:00;10.4;;;6.3;;
68319;SDS011;55168;51.120;17.024;2024-03-17T03:59:00;10.8;;;6.7;;
68319;SDS011;55168;51.120;17.024;2024-03-17T04:00:00;10.8;;;6.7;;
68319;SDS011;55168;51.120;17.024;2024-03-17T04:01:03;10.8;;;6.7;;
68319;SDS011;55168;51.120;17.024;2024-03-17T04:02:00;10.8;;;6.7;;
68319;SDS011;55168;51.120;17.024;2024-03-17T04:03:00;10.8;;;6.7;;
68319;SDS011;55168;51.120;17.024;2024-03-17T04:04:00;9.8;;;6.6;;
68319;SDS011;55168;51.120;17.024;2024-03-17T04:05:00;9.8;;;6.6;;
68319;SDS011;55168;51.120;17.024;2024-03-17T04:06:01;9.8;;;6.6;;
68319;SDS011;55168;51.120;17.024;2024-03-17T04:07:00;9.8;;;6.6;;
68319;SDS011;55168;51.120;17.024;2024-03-17T04:08:00;9.8;;;6.6;;
68319;SDS011;55168;51.120;17.024;2024-03-17T04:09:00;8.8;;;6.2;;
68319;SDS011;55168;51.120;17.024;2024-03-17T04:10:00;8.8;;;6.2;;
68319;SDS011;55168;51.120;17.024;2024-03-17T04:11:00;8.8;;;6.2;;
68319;SDS011;55168;51.120;17.024;2024-03-17T04:12:00;8.8;;;6.2;;
68319;SDS011;55168;51.120;17.024;2024-03-17T04:13:00;8.8;;;6.2;;
68319;SDS011;55168;51.120;17.024;2024-03-17T04:14:00;11.9;;;6.6;;
68319;SDS011;55168;51.120;17.024;2024-03-17T04:15:00;11.9;;;6.6;;
68319;SDS011;55168;51.120;17.024;2024-03-17T04:16:03;11.9;;;6.6;;
68319;SDS011;55168;51.120;17.024;2024-03-17T04:17:00;11.9;;;6.6;;
68319;SDS011;55168;51.120;17.024;2024-03-17T04:18:00;11.9;;;6.6;;
68319;SDS011;55168;51.120;17.024;2024-03-17T04:19:00;8.6;;;5.5;;
68319;SDS011;55168;51.120;17.024;2024-03-17T04:20:00;8.6;;;5.5;;
68319;SDS011;55168;51.120;17.024;2024-03-17T04:21:03;8.6;;;5.5;;
68319;SDS011;55168;51.120;17.024;2024-03-17T04:22:00;8.6;;;5.5;;
68319;SDS011;55168;51.120;17.024;2024-03-17T04:23:00;8.6;;;5.5;;
68319;SDS011;55168;51.120;17.024;2024-03-17T04:24:00;9.8;;;6.1;;
68319;SDS011;55168;51.120;17.024;2024-03-17T04:25:00;9.8;;;6.1;;
68319;SDS011;55168;51.120;17.024;2024-03-17T04:26:00;9.8;;;6.1;;
68319;SDS011;55168;51.120;17.024;2024-03-17T04:27:00;9.8;;;6.1;;
68319;SDS011;55168;51.120;17.024;2024-03-17T04:28:00;9.8;;;6.1;;
68319;SDS011;55168;51.120;17.024;2024-03-17T04:29:00;9.7;;;5.4;;
68319;SDS011;55168;51.120;17.024;2024-03-17T04:30:00;9.7;;;5.4;;
68319;SDS011;55168;51.120;17.024;2024-03-17T04:31:03;9.7;;;5.4;;
68319;SDS011;55168;51.120;17.024;2024-03-17T04:32:00;9.7;;;5.4;;
68319;SDS011;55168;51.120;17.024;2024-03-17T04:33:00;9.7;;;5.4;;
68319;SDS011;55168;51.120;17.024;2024-03-17T04:34:00;9.0;;;5.7;;
68319;SDS011;55168;51.120;17.024;2024-03-17T04:35:00;9.0;;;5.7;;
68319;SDS011;55168;51.120;17.024;2024-03-17T04:36:00;9.0;;;5.7;;
68319;SDS011;55168;51.120;17.024;2024-03-17T04:37:00;9.0;;;5.7;;
68319;SDS011;55168;51.120;17.024;2024-03-17T04:38:00;9.0;;;5.7;;
68319;SDS011;55168;51.120;17.024;2024-03-17T04:39:00;10.9;;;5.5;;
68319;SDS011;55168;51.120;17.024;2024-03-17T04:40:00;10.9;;;5.5;;
68319;SDS011;55168;51.120;17.024;2024-03-17T04:41:00;10.9;;;5.5;;
68319;SDS011;55168;51.120;17.024;2024-03-17T04:42:00;10.9;;;5.5;;
68319;SDS011;55168;51.120;17.024;2024-03-17T04:43:00;10.9;;;5.5;;
68319;SDS011;55168;51.120;17.024;2024-03-17T04:44:00;8.1;;;5.3;;
68319;SDS011;55168;51.120;17.024;2024-03-17T04:45:00;8.1;;;5.3;;
68319;SDS011;55168;51.120;17.024;2024-03-17T04:46:03;8.1;;;5.3;;
68319;SDS011;55168;51.120;17.024;2024-03-17T04:47:00;8.1;;;5.3;;
68319;SDS011;55168;51.120;17.024;2024-03-17T04:48:00;8.1;;;5.3;;
68319;SDS011;55168;51.120;17.024;2024-03-17T04:49:00;10.1;;;5.8;;
68319;SDS011;55168;51.120;17.024;2024-03-17T04:50:00;10.1;;;5.8;;
68319;SDS011;55168;51.120;17.024;2024-03-17T04:51:00;10.1;;;5.8;;
68319;SDS011;55168;51.120;17.024;2024-03-17T04:52:00;10.1;;;5.8;;
68319;SDS011;55168;51.120;17.024;2024-03-17T04:53:00;10.1;;;5.8;;
68319;SDS011;55168;51.120;17.024;2024-03-17T04:54:01;8.3;;;5.4;;
68319;SDS011;55168;51.120;17.024;2024-03-17T04:55:00;8.3;;;5.4;;
68319;SDS011;55168;51.120;17.024;2024-03-17T04:56:04;8.3;;;5.4;;
68319;SDS011;55168;51.120;17.024;2024-03-17T04:57:00;8.3;;;5.4;;
68319;SDS011;55168;51.120;17.024;2024-03-17T04:58:00;8.3;;;5.4;;
68319;SDS011;55168;51.120;17.024;2024-03-17T04:59:00;7.5;;;5.1;;
68319;SDS011;55168;51.120;17.024;2024-03-17T05:00:00;7.5;;;5.1;;
68319;SDS011;55168;51.120;17.024;2024-03-17T05:01:04;7.5;;;5.1;;
68319;SDS011;55168;51.120;17.024;2024-03-17T05:02:00;7.5;;;5.1;;
68319;SDS011;55168;51.120;17.024;2024-03-17T05:03:00;7.5;;;5.1;;
68319;SDS011;55168;51.120;17.024;2024-03-17T05:04:00;9.8;;;5.5;;
68319;SDS011;55168;51.120;17.024;2024-03-17T05:05:00;9.8;;;5.5;;
68319;SDS011;55168;51.120;17.024;2024-03-17T05:06:00;9.8;;;5.5;;
68319;SDS011;55168;51.120;17.024;2024-03-17T05:07:00;9.8;;;5.5;;
68319;SDS011;55168;51.120;17.024;2024-03-17T05:08:00;9.8;;;5.5;;
68319;SDS011;55168;51.120;17.024;2024-03-17T05:09:00;8.2;;;5.8;;
68319;SDS011;55168;51.120;17.024;2024-03-17T05:10:00;8.2;;;5.8;;
68319;SDS011;55168;51.120;17.024;2024-03-17T05:11:01;8.2;;;5.8;;
68319;SDS011;55168;51.120;17.024;2024-03-17T05:12:00;8.2;;;5.8;;
68319;SDS011;55168;51.120;17.024;2024-03-17T05:13:00;8.2;;;5.8;;
68319;SDS011;55168;51.120;17.024;2024-03-17T05:14:00;10.3;;;5.7;;
68319;SDS011;55168;51.120;17.024;2024-03-17T05:15:00;10.3;;;5.7;;
68319;SDS011;55168;51.120;17.024;2024-03-17T05:16:00;10.3;;;5.7;;
68319;SDS011;55168;51.120;17.024;2024-03-17T05:17:00;10.3;;;5.7;;
68319;SDS011;55168;51.120;17.024;2024-03-17T05:18:00;10.3;;;5.7;;
68319;SDS011;55168;51.120;17.024;2024-03-17T05:19:00;8.4;;;5.7;;
68319;SDS011;55168;51.120;17.024;2024-03-17T05:20:00;8.4;;;5.7;;
68319;SDS011;55168;51.120;17.024;2024-03-17T05:21:01;8.4;;;5.7;;
68319;SDS011;55168;51.120;17.024;2024-03-17T05:22:00;8.4;;;5.7;;
68319;SDS011;55168;51.120;17.024;2024-03-17T05:23:00;8.4;;;5.7;;
68319;SDS011;55168;51.120;17.024;2024-03-17T05:24:02;11.4;;;5.9;;
68319;SDS011;55168;51.120;17.024;2024-03-17T05:25:00;11.4;;;5.9;;
68319;SDS011;55168;51.120;17.024;2024-03-17T05:26:00;11.4;;;5.9;;
68319;SDS011;55168;51.120;17.024;2024-03-17T05:27:00;11.4;;;5.9;;
68319;SDS011;55168;51.120;17.024;2024-03-17T05:28:00;11.4;;;5.9;;
68319;SDS011;55168;51.120;17.024;2024-03-17T05:29:00;9.7;;;5.2;;
68319;SDS011;55168;51.120;17.024;2024-03-17T05:30:00;9.7;;;5.2;;
68319;SDS011;55168;51.120;17.024;2024-03-17T05:31:00;9.7;;;5.2;;
68319;SDS011;55168;51.120;17.024;2024-03-17T05:32:00;9.7;;;5.2;;
68319;SDS011;55168;51.120;17.024;2024-03-17T05:33:00;9.7;;;5.2;;
68319;SDS011;55168;51.120;17.024;2024-03-17T05:34:00;10.0;;;5.5;;
68319;SDS011;55168;51.120;17.024;2024-03-17T05:35:00;10.0;;;5.5;;
68319;SDS011;55168;51.120;17.024;2024-03-17T05:36:01;10.0;;;5.5;;
68319;SDS011;55168;51.120;17.024;2024-03-17T05:37:00;10.0;;;5.5;;
68319;SDS011;55168;51.120;17.024;2024-03-17T05:38:00;10.0;;;5.5;;
68319;SDS011;55168;51.120;17.024;2024-03-17T05:39:00;8.1;;;5.4;;
68319;SDS011;55168;51.120;17.024;2024-03-17T05:40:00;8.1;;;5.4;;
68319;SDS011;55168;51.120;17.024;2024-03-17T05:41:03;8.1;;;5.4;;
68319;SDS011;55168;51.120;17.024;2024-03-17T05:42:00;8.1;;;5.4;;
68319;SDS011;55168;51.120;17.024;2024-03-17T05:43:00;8.1;;;5.4;;
68319;SDS011;55168;51.120;17.024;2024-03-17T05:44:00;5.8;;;4.9;;
68319;SDS011;55168;51.120;17.024;2024-03-17T05:45:00;5.8;;;4.9;;
68319;SDS011;55168;51.120;17.024;2024-03-17T05:46:00;5.8;;;4.9;;
68319;SDS011;55168;51.120;17.024;2024-03-17T05:47:00;5.8;;;4.9;;
68319;SDS011;55168;51.120;17.024;2024-03-17T05:48:00;5.8;;;4.9;;
68319;SDS011;55168;51.120;17.024;2024-03-17T05:49:00;7.7;;;4.8;;
68319;SDS011;55168;51.120;17.024;2024-03-17T05:50:00;7.7;;;4.8;;
68319;SDS011;55168;51.120;17.024;2024-03-17T05:51:01;7.7;;;4.8;;
68319;SDS011;55168;51.120;17.024;2024-03-17T05:52:00;7.7;;;4.8;;
68319;SDS011;55168;51.120;17.024;2024-03-17T05:53:00;7.7;;;4.8;;
68319;SDS011;55168;51.120;17.024;2024-03-17T05:54:00;8.5;;;4.8;;
68319;SDS011;55168;51.120;17.024;2024-03-17T05:55:00;8.5;;;4.8;;
68319;SDS011;55168;51.120;17.024;2024-03-17T05:56:01;8.5;;;4.8;;
68319;SDS011;55168;51.120;17.024;2024-03-17T05:57:00;8.5;;;4.8;;
68319;SDS011;55168;51.120;17.024;2024-03-17T05:58:00;8.5;;;4.8;;
68319;SDS011;55168;51.120;17.024;2024-03-17T05:59:00;8.6;;;4.9;;
68319;SDS011;55168;51.120;17.024;2024-03-17T06:00:00;8.6;;;4.9;;
68319;SDS011;55168;51.120;17.024;2024-03-17T06:01:02;8.6;;;4.9;;
68319;SDS011;55168;51.120;17.024;2024-03-17T06:02:00;8.6;;;4.9;;
68319;SDS011;55168;51.120;17.024;2024-03-17T06:03:00;8.6;;;4.9;;
68319;SDS011;55168;51.120;17.024;2024-03-17T06:04:00;9.0;;;4.6;;
68319;SDS011;55168;51.120;17.024;2024-03-17T06:05:00;9.0;;;4.6;;